Time;durP1;ratioP1;P1;durP2;ratioP2;P2;SDS_P1;SDS_P2;PMS_P1;PMS_P2;Temp;Humidity;BMP_temperature;BMP_pressure;BME280_temperature;BME280_humidity;BME280_pressure;Samples;Min_cycle;Max_cycle;Signal;HPM_P1;HPM_P2
2021/10/14 08:49:23;;;;;;;1.90;1.20;;;;;;;;;;6219520;23;20004;-81
2021/10/14 08:51:51;;;;;;;1.75;1.50;;;;;;;;;;6247231;23;20008;-84
2021/10/14 08:54:16;;;;;;;2.60;1.20;;;;;;;;;;6247023;22;20000;-87
2021/10/14 08:56:44;;;;;;;1.52;1.30;;;;;;;;;;6247053;23;20088;-87
2021/10/14 08:59:13;;;;;;;3.13;1.23;;;;;;;;;;6247026;23;20000;-85
2021/10/14 09:01:40;;;;;;;2.75;1.27;;;;;;;;;;6247286;23;20099;-81
2021/10/14 09:04:14;;;;;;;1.98;1.13;;;;;;;;;;6247069;22;20036;-80
2021/10/14 09:06:40;;;;;;;1.40;1.30;;;;;;;;;;6246632;23;20087;-78
2021/10/14 09:09:06;;;;;;;1.50;1.35;;;;;;;;;;6246984;23;20011;-81
2021/10/14 09:11:31;;;;;;;1.45;1.17;;;;;;;;;;6219906;23;20423;-81
2021/10/14 09:14:05;;;;;;;2.20;1.15;;;;;;;;;;6246090;22;20004;-81
2021/10/14 09:16:31;;;;;;;2.05;1.40;;;;;;;;;;6246792;23;20004;-79
2021/10/14 09:19:13;;;;;;;1.70;1.30;;;;;;;;;;6246961;23;20004;-79
2021/10/14 09:21:40;;;;;;;4.50;1.40;;;;;;;;;;6246740;23;20335;-79
2021/10/14 09:24:39;;;;;;;2.38;1.30;;;;;;;;;;6246617;22;20411;-79
2021/10/14 09:27:07;;;;;;;2.83;1.30;;;;;;;;;;6246876;23;20008;-79
2021/10/14 09:29:34;;;;;;;1.55;1.10;;;;;;;;;;6246628;23;20008;-79
2021/10/14 09:32:04;;;;;;;1.48;1.20;;;;;;;;;;6246854;23;20000;-81
2021/10/14 09:34:50;;;;;;;1.50;1.23;;;;;;;;;;6246515;22;20004;-80
2021/10/14 09:37:18;;;;;;;2.10;1.38;;;;;;;;;;6246509;23;20097;-80
2021/10/14 09:40:06;;;;;;;2.40;1.25;;;;;;;;;;6246727;23;20427;-80
2021/10/14 09:42:54;;;;;;;2.05;1.20;;;;;;;;;;6246357;23;20011;-79
2021/10/14 09:45:26;;;;;;;1.45;1.30;;;;;;;;;;6246231;22;20000;-80
2021/10/14 09:48:04;;;;;;;1.83;1.27;;;;;;;;;;6247096;23;20012;-81
2021/10/14 09:50:35;;;;;;;2.30;1.20;;;;;;;;;;6248729;23;20000;-79
2021/10/14 09:53:02;;;;;;;2.00;1.10;;;;;;;;;;6246540;23;20008;-79
2021/10/14 09:55:28;;;;;;;2.13;1.15;;;;;;;;;;6246392;22;20008;-79
2021/10/14 09:57:55;;;;;;;5.07;1.50;;;;;;;;;;6246446;23;20331;-81
2021/10/14 10:00:21;;;;;;;2.40;1.15;;;;;;;;;;6246597;23;20007;-79
2021/10/14 10:02:47;;;;;;;1.73;1.05;;;;;;;;;;6246760;23;20008;-79
2021/10/14 10:05:13;;;;;;;0.80;0.80;;;;;;;;;;6246388;22;20040;-79
2021/10/14 10:07:43;;;;;;;1.58;1.27;;;;;;;;;;6246526;23;20061;-77
2021/10/14 10:10:13;;;;;;;0.88;0.85;;;;;;;;;;6219192;23;20034;-78
2021/10/14 10:12:39;;;;;;;3.20;0.82;;;;;;;;;;6246166;23;20008;-80
2021/10/14 10:15:05;;;;;;;2.30;0.90;;;;;;;;;;6246439;22;20015;-81
2021/10/14 10:17:38;;;;;;;1.30;0.90;;;;;;;;;;6246105;23;20335;-79
2021/10/14 10:20:05;;;;;;;1.75;0.77;;;;;;;;;;6219226;23;20008;-79
2021/10/14 10:22:34;;;;;;;1.50;1.05;;;;;;;;;;6246173;23;20446;-79
2021/10/14 10:25:18;;;;;;;2.83;1.00;;;;;;;;;;6246276;22;20007;-81
2021/10/14 10:27:44;;;;;;;1.10;0.90;;;;;;;;;;6248540;23;20008;-81
2021/10/14 10:30:09;;;;;;;2.53;1.13;;;;;;;;;;6248367;23;20304;-81
2021/10/14 10:32:42;;;;;;;1.20;1.10;;;;;;;;;;6248621;23;20007;-86
2021/10/14 10:35:09;;;;;;;1.80;1.20;;;;;;;;;;6248329;22;20024;-90
2021/10/14 10:40:21;;;;;;;1.85;1.20;;;;;;;;;;6248465;23;20433;-81
2021/10/14 10:42:59;;;;;;;1.30;1.17;;;;;;;;;;6222324;23;20323;-81
2021/10/14 10:45:29;;;;;;;1.50;0.90;;;;;;;;;;6248165;22;20296;-83
2021/10/14 10:47:58;;;;;;;1.67;1.50;;;;;;;;;;6248158;23;20012;-81
2021/10/14 10:50:29;;;;;;;6.65;5.13;;;;;;;;;;6221325;23;20016;-81
2021/10/14 10:53:04;;;;;;;1.50;1.23;;;;;;;;;;6248073;23;20004;-82
2021/10/14 10:55:54;;;;;;;1.55;1.10;;;;;;;;;;6247984;22;20052;-79
2021/10/14 10:58:31;;;;;;;1.10;1.00;;;;;;;;;;6209786;23;20004;-78
2021/10/14 11:00:58;;;;;;;1.58;0.90;;;;;;;;;;6248076;23;20000;-79
2021/10/14 11:03:25;;;;;;;2.78;1.08;;;;;;;;;;6247872;23;20331;-78
2021/10/14 11:06:00;;;;;;;1.95;0.80;;;;;;;;;;6248010;22;20000;-78
2021/10/14 11:08:27;;;;;;;2.92;1.60;;;;;;;;;;6248023;23;20051;-78
2021/10/14 11:11:18;;;;;;;0.93;0.80;;;;;;;;;;6247669;23;20490;-78
2021/10/14 11:13:47;;;;;;;1.45;1.30;;;;;;;;;;6248102;22;20371;-77
2021/10/14 11:16:14;;;;;;;1.33;1.02;;;;;;;;;;6247928;23;20019;-78
2021/10/14 11:18:46;;;;;;;1.38;1.10;;;;;;;;;;6247888;23;20004;-78
2021/10/14 11:21:13;;;;;;;2.17;1.10;;;;;;;;;;6247833;23;20026;-78
2021/10/14 11:23:40;;;;;;;2.22;0.90;;;;;;;;;;6251136;22;20004;-77
2021/10/14 11:26:16;;;;;;;2.45;0.90;;;;;;;;;;6252314;23;20093;-77
2021/10/14 11:29:04;;;;;;;1.70;1.20;;;;;;;;;;6248027;23;20058;-79
2021/10/14 11:31:41;;;;;;;2.40;1.02;;;;;;;;;;6221031;23;20023;-78
2021/10/14 11:34:23;;;;;;;1.48;1.10;;;;;;;;;;6248093;22;20004;-82
2021/10/14 11:37:10;;;;;;;3.80;0.90;;;;;;;;;;6247640;23;20327;-82
2021/10/14 11:39:38;;;;;;;2.22;1.30;;;;;;;;;;6247589;23;20047;-82
2021/10/14 11:42:09;;;;;;;2.53;1.00;;;;;;;;;;6247496;23;20000;-83
2021/10/14 11:44:36;;;;;;;1.77;1.00;;;;;;;;;;6247795;22;20311;-83
2021/10/14 15:58:44;;;;;;;3.25;1.85;;;;;;;;;;6218726;22;19915;-75
2021/10/14 16:01:11;;;;;;;2.85;2.15;;;;;;;;;;6220058;23;20016;-76
2021/10/14 16:03:36;;;;;;;2.80;1.77;;;;;;;;;;6247714;23;20000;-75
2021/10/14 16:06:03;;;;;;;3.40;1.73;;;;;;;;;;6247254;22;20103;-78
2021/10/14 16:08:29;;;;;;;2.85;1.90;;;;;;;;;;6247389;23;20083;-75
2021/10/14 16:10:54;;;;;;;2.78;1.90;;;;;;;;;;6247372;23;20032;-77
2021/10/14 16:13:20;;;;;;;2.22;1.63;;;;;;;;;;6247176;23;20151;-76
2021/10/14 16:15:46;;;;;;;3.65;1.92;;;;;;;;;;6247231;22;20126;-76
2021/10/14 16:18:12;;;;;;;2.63;1.85;;;;;;;;;;6247323;23;20054;-77
2021/10/14 16:20:38;;;;;;;2.50;1.70;;;;;;;;;;6247392;23;20005;-77
2021/10/14 16:23:04;;;;;;;2.40;1.55;;;;;;;;;;6246877;23;19996;-77
2021/10/14 16:25:30;;;;;;;2.70;1.70;;;;;;;;;;6246946;22;20000;-77
2021/10/14 16:27:56;;;;;;;2.42;1.52;;;;;;;;;;6246815;23;20004;-75
2021/10/14 16:30:23;;;;;;;2.97;1.80;;;;;;;;;;6246956;23;20372;-76
2021/10/14 16:33:28;;;;;;;5.53;2.10;;;;;;;;;;6247265;23;20007;-76
2021/10/14 16:35:38;;;;;;;3.17;2.00;;;;;;;;;;6243325;22;20012;-77
2021/10/14 16:38:04;;;;;;;3.10;1.75;;;;;;;;;;6247129;23;20004;-75
2021/10/14 16:40:29;;;;;;;2.42;1.90;;;;;;;;;;6247001;23;20027;-77
2021/10/14 16:42:55;;;;;;;2.97;1.67;;;;;;;;;;6220246;23;20441;-76
2021/10/14 16:45:20;;;;;;;3.58;1.92;;;;;;;;;;6220335;22;20004;-78
2021/10/14 16:47:46;;;;;;;4.35;2.05;;;;;;;;;;6247114;23;20079;-76
2021/10/14 16:50:17;;;;;;;3.97;2.10;;;;;;;;;;6246597;23;20004;-76
2021/10/14 16:52:44;;;;;;;4.82;2.25;;;;;;;;;;6246805;23;19996;-75
2021/10/14 16:55:12;;;;;;;3.20;1.90;;;;;;;;;;6246887;23;20423;-77
2021/10/14 16:57:40;;;;;;;2.92;2.03;;;;;;;;;;6246738;22;20304;-76
2021/10/14 17:00:08;;;;;;;3.47;2.17;;;;;;;;;;6219857;23;20450;-78
2021/10/14 17:02:33;;;;;;;3.17;2.25;;;;;;;;;;6220230;23;20316;-76
2021/10/14 17:05:00;;;;;;;4.53;2.00;;;;;;;;;;6246977;23;20008;-76
2021/10/14 17:39:09;;;;;;;7.80;5.87;;;;;;;;;;6256819;23;20331;-76
2021/10/14 17:41:35;;;;;;;3.58;3.05;;;;;;;;;;6246356;22;20007;-77
2021/10/14 17:44:07;;;;;;;2.10;1.65;;;;;;;;;;6246576;23;20004;-75
2021/10/14 17:46:39;;;;;;;5.05;2.63;;;;;;;;;;6245086;23;20004;-75
2021/10/14 17:49:06;;;;;;;3.70;2.90;;;;;;;;;;6244100;23;20088;-76
2021/10/14 17:51:31;;;;;;;3.47;1.92;;;;;;;;;;6244189;22;20008;-74
2021/10/14 17:53:57;;;;;;;5.38;2.60;;;;;;;;;;6245716;23;20451;-74
2021/10/14 17:56:22;;;;;;;4.22;2.40;;;;;;;;;;6245739;23;20023;-74
2021/10/14 17:58:48;;;;;;;3.53;2.45;;;;;;;;;;6219104;23;20335;-74
2021/10/14 18:01:14;;;;;;;3.40;2.47;;;;;;;;;;6245891;22;20007;-74
2021/10/14 18:09:03;;;;;;;3.05;2.15;;;;;;;;;;6254616;23;20031;-74
2021/10/14 18:38:48;;;;;;;3.63;2.60;;;;;;;;;;6245552;23;20015;-78
2021/10/14 18:41:15;;;;;;;3.97;2.75;;;;;;;;;;6245766;22;20087;-77
2021/10/14 18:43:43;;;;;;;3.22;1.98;;;;;;;;;;6245358;23;20030;-76
2021/10/14 18:46:08;;;;;;;6.07;2.70;;;;;;;;;;6246231;23;20028;-76
2021/10/14 18:48:36;;;;;;;4.35;3.58;;;;;;;;;;6247488;23;20019;-76
2021/10/14 18:51:04;;;;;;;6.38;4.53;;;;;;;;;;6247335;22;20008;-76
2021/10/14 18:53:30;;;;;;;5.72;3.65;;;;;;;;;;6220491;23;20004;-76
2021/10/14 18:55:58;;;;;;;6.47;3.50;;;;;;;;;;6247579;23;20007;-77
2021/10/14 18:58:23;;;;;;;5.10;3.70;;;;;;;;;;6220567;23;20004;-76
2021/10/14 19:00:49;;;;;;;4.95;3.13;;;;;;;;;;6247708;22;20422;-77
2021/10/14 19:06:04;;;;;;;3.38;3.00;;;;;;;;;;6257794;23;20424;-76
2021/10/14 19:14:18;;;;;;;4.88;3.75;;;;;;;;;;6247403;23;20077;-76
2021/10/14 19:19:23;;;;;;;3.47;2.22;;;;;;;;;;6257752;23;20043;-76
2021/10/14 20:22:05;;;;;;;5.45;3.25;;;;;;;;;;6246492;23;20041;-75
2021/10/14 20:24:30;;;;;;;5.68;3.38;;;;;;;;;;6219549;23;20008;-76
2021/10/14 20:26:56;;;;;;;3.33;2.53;;;;;;;;;;6246683;23;20374;-75
2021/10/14 20:29:21;;;;;;;3.50;2.90;;;;;;;;;;6246852;23;20000;-75
2021/10/14 20:31:48;;;;;;;6.00;3.17;;;;;;;;;;6246728;22;20000;-75
2021/10/14 20:34:27;;;;;;;5.50;2.92;;;;;;;;;;6246511;23;20118;-74
2021/10/14 20:36:52;;;;;;;6.80;3.22;;;;;;;;;;6246426;23;20008;-75
2021/10/14 20:39:18;;;;;;;5.47;2.80;;;;;;;;;;6246690;23;20009;-76
2021/10/14 20:41:43;;;;;;;3.35;2.33;;;;;;;;;;6246196;22;20004;-75
2021/10/14 20:44:09;;;;;;;4.55;2.58;;;;;;;;;;6246478;23;20008;-75
2021/10/14 20:46:34;;;;;;;2.45;2.20;;;;;;;;;;6246590;23;20423;-76
2021/10/14 20:49:00;;;;;;;3.80;3.05;;;;;;;;;;6246839;23;20151;-74
2021/10/14 20:51:29;;;;;;;5.47;2.85;;;;;;;;;;6246534;22;20031;-76
2021/10/14 20:53:59;;;;;;;5.53;2.90;;;;;;;;;;6246411;23;20300;-75
2021/10/14 21:04:46;;;;;;;3.75;2.45;;;;;;;;;;6246385;23;20015;-75
2021/10/14 21:07:11;;;;;;;4.95;2.50;;;;;;;;;;6246010;23;20004;-75
2021/10/14 21:09:41;;;;;;;3.63;2.42;;;;;;;;;;6246172;22;20008;-76
2021/10/14 21:12:07;;;;;;;3.72;2.60;;;;;;;;;;6246148;23;20006;-76
2021/10/14 21:14:32;;;;;;;5.15;3.08;;;;;;;;;;6246069;23;20487;-75
2021/10/14 21:16:57;;;;;;;5.05;2.90;;;;;;;;;;6246301;23;20079;-75
2021/10/14 21:19:23;;;;;;;4.80;3.28;;;;;;;;;;6245956;23;20320;-75
2021/10/14 21:21:48;;;;;;;5.60;3.30;;;;;;;;;;6246167;22;20000;-74
2021/10/14 21:24:16;;;;;;;8.40;4.18;;;;;;;;;;6246327;23;20046;-75
2021/10/14 21:29:15;;;;;;;6.80;3.95;;;;;;;;;;6251952;23;20087;-76
2021/10/14 21:37:07;;;;;;;5.00;3.92;;;;;;;;;;6246036;23;20019;-77
2021/10/14 21:39:33;;;;;;;6.47;4.10;;;;;;;;;;6245792;22;20411;-75
2021/10/14 21:41:58;;;;;;;4.93;4.15;;;;;;;;;;6245915;23;20004;-76
2021/10/14 21:44:24;;;;;;;7.68;4.53;;;;;;;;;;6245953;23;20004;-75
2021/10/14 21:46:49;;;;;;;9.77;4.60;;;;;;;;;;6245743;23;20008;-77
2021/10/14 21:49:15;;;;;;;6.28;4.20;;;;;;;;;;6245991;23;20016;-74
2021/10/14 21:51:41;;;;;;;5.07;3.85;;;;;;;;;;6246039;22;20027;-75
2021/10/14 21:54:06;;;;;;;5.70;3.45;;;;;;;;;;6245745;23;20353;-75
2021/10/14 21:56:36;;;;;;;7.43;4.03;;;;;;;;;;6245783;23;20079;-75
2021/10/14 21:59:03;;;;;;;5.63;4.00;;;;;;;;;;6245708;23;20023;-75
2021/10/14 22:01:29;;;;;;;5.93;3.78;;;;;;;;;;6245900;22;20083;-76
2021/10/14 22:03:54;;;;;;;5.88;3.72;;;;;;;;;;6245607;23;20039;-74
2021/10/14 22:06:20;;;;;;;6.50;3.72;;;;;;;;;;6245810;23;20012;-75
2021/10/14 22:08:45;;;;;;;4.35;3.30;;;;;;;;;;6245835;23;20050;-74
2021/10/14 22:11:11;;;;;;;7.13;4.35;;;;;;;;;;6245564;22;20004;-76
2021/10/14 22:13:36;;;;;;;3.75;3.17;;;;;;;;;;6245989;23;20005;-74
2021/10/14 22:16:02;;;;;;;4.80;2.92;;;;;;;;;;6245697;23;20026;-76
2021/10/14 22:18:27;;;;;;;5.80;3.60;;;;;;;;;;6245852;23;20008;-75
2021/10/14 22:20:52;;;;;;;6.05;4.45;;;;;;;;;;6245621;22;20011;-74
2021/10/14 22:23:19;;;;;;;7.65;4.32;;;;;;;;;;6247936;23;20000;-74
2021/10/14 22:25:45;;;;;;;4.93;4.05;;;;;;;;;;6247765;23;20011;-76
2021/10/14 22:28:11;;;;;;;7.65;4.72;;;;;;;;;;6247783;23;20008;-74
2021/10/14 22:30:36;;;;;;;7.90;5.28;;;;;;;;;;6247633;22;20004;-74
2021/10/14 22:33:02;;;;;;;5.75;4.38;;;;;;;;;;6247776;23;20450;-75
2021/10/14 22:35:27;;;;;;;7.55;4.72;;;;;;;;;;6247839;23;20004;-75
2021/10/14 22:37:53;;;;;;;6.47;4.70;;;;;;;;;;6247809;23;20038;-76
2021/10/14 22:40:19;;;;;;;6.85;4.55;;;;;;;;;;6247573;22;20008;-76
2021/10/14 22:42:45;;;;;;;6.75;4.65;;;;;;;;;;6247576;23;20007;-75
2021/10/14 22:45:10;;;;;;;6.35;4.45;;;;;;;;;;6247612;23;20008;-75
